createdAt,value
2023-03-29T00:00:22.341Z,3.28
2023-03-29T00:02:49.397Z,3.38
2023-03-29T00:05:19.818Z,3.31
2023-03-29T00:07:46.538Z,3.34
2023-03-29T00:10:13.250Z,3.28
2023-03-29T00:12:40.398Z,3.30
2023-03-29T00:15:08.944Z,3.22
2023-03-29T00:17:36.867Z,3.13
2023-03-29T00:20:07.120Z,3.28
2023-03-29T00:22:34.580Z,3.03
2023-03-29T00:25:01.707Z,3.22
2023-03-29T00:27:28.718Z,3.71
2023-03-29T00:29:58.179Z,3.52
2023-03-29T00:32:25.204Z,3.50
2023-03-29T00:34:54.737Z,3.92
2023-03-29T00:37:22.951Z,3.88
2023-03-29T00:39:50.013Z,3.80
2023-03-29T00:42:17.242Z,4.10
2023-03-29T00:45:15.201Z,4.31
2023-03-29T00:47:44.024Z,4.24
2023-03-29T00:50:15.283Z,4.34
2023-03-29T00:52:43.523Z,4.21
2023-03-29T00:55:14.581Z,4.15
2023-03-29T00:57:42.304Z,4.16
2023-03-29T01:00:09.416Z,5.35
2023-03-29T01:02:36.736Z,4.64
2023-03-29T01:05:12.243Z,4.24
2023-03-29T01:07:43.139Z,4.18
2023-03-29T01:10:15.984Z,4.19
2023-03-29T01:12:50.263Z,3.96
2023-03-29T01:15:22.830Z,3.99
2023-03-29T01:17:49.597Z,3.87
2023-03-29T01:20:38.124Z,3.89
2023-03-29T01:23:23.313Z,3.84
2023-03-29T01:26:15.033Z,3.94
2023-03-29T01:28:47.381Z,4.09
2023-03-29T01:31:18.639Z,4.06
2023-03-29T01:33:49.628Z,3.87
2023-03-29T01:36:35.749Z,3.82
2023-03-29T01:39:06.183Z,3.86
2023-03-29T01:41:54.045Z,3.74
2023-03-29T01:44:38.193Z,3.90
2023-03-29T01:47:13.002Z,3.46
2023-03-29T01:49:49.225Z,3.68
2023-03-29T01:52:18.956Z,3.44
2023-03-29T01:54:50.315Z,3.33
2023-03-29T01:57:17.482Z,3.37
2023-03-29T01:59:44.232Z,3.29
2023-03-29T02:02:14.947Z,3.26
2023-03-29T02:04:47.369Z,3.41
2023-03-29T02:07:14.447Z,3.72
2023-03-29T02:09:41.126Z,3.28
2023-03-29T02:12:08.360Z,3.30
2023-03-29T02:14:36.413Z,3.34
2023-03-29T02:17:20.261Z,3.31
2023-03-29T02:19:48.844Z,3.19
2023-03-29T02:22:16.076Z,3.23
2023-03-29T02:24:42.864Z,3.15
2023-03-29T02:27:09.896Z,3.30
2023-03-29T02:29:37.713Z,3.17
2023-03-29T02:32:15.852Z,3.34
2023-03-29T02:34:46.598Z,3.14
2023-03-29T02:37:14.848Z,2.99
2023-03-29T02:39:41.645Z,3.33
2023-03-29T02:42:11.360Z,3.21
2023-03-29T02:44:39.582Z,3.06
2023-03-29T02:47:08.889Z,3.10
2023-03-29T02:49:36.598Z,3.19
2023-03-29T02:52:08.984Z,2.83
2023-03-29T02:54:36.080Z,3.05
2023-03-29T02:57:04.109Z,3.16
2023-03-29T02:59:32.011Z,2.91
2023-03-29T03:01:59.051Z,3.03
2023-03-29T03:04:28.877Z,3.35
2023-03-29T03:06:55.961Z,3.15
2023-03-29T03:09:22.898Z,2.92
2023-03-29T03:11:49.969Z,2.90
2023-03-29T03:14:16.992Z,3.03
2023-03-29T03:16:44.559Z,2.73
2023-03-29T03:19:12.914Z,2.62
2023-03-29T03:21:41.163Z,2.75
2023-03-29T03:24:10.625Z,2.95
2023-03-29T03:26:37.643Z,2.76
2023-03-29T03:29:07.179Z,2.74
2023-03-29T03:31:36.734Z,2.87
2023-03-29T03:34:03.452Z,2.62
2023-03-29T03:36:30.543Z,2.54
2023-03-29T03:39:00.304Z,2.71
2023-03-29T03:41:27.104Z,2.77
2023-03-29T03:43:55.110Z,2.71
2023-03-29T03:46:21.868Z,2.79
2023-03-29T03:48:48.650Z,2.67
2023-03-29T03:51:15.353Z,2.52
2023-03-29T03:53:42.105Z,2.63
2023-03-29T03:56:09.696Z,2.68
2023-03-29T03:58:39.615Z,2.54
2023-03-29T04:01:07.411Z,2.56
2023-03-29T04:03:35.812Z,2.37
2023-03-29T04:06:05.775Z,2.42
2023-03-29T04:08:33.518Z,2.59
2023-03-29T04:11:03.333Z,2.67
2023-03-29T04:13:31.711Z,2.35
2023-03-29T04:16:01.413Z,2.41
2023-03-29T04:18:31.410Z,2.70
2023-03-29T04:20:58.747Z,2.31
2023-03-29T04:23:26.516Z,2.39
2023-03-29T04:25:57.745Z,2.34
2023-03-29T04:28:24.824Z,2.22
2023-03-29T04:30:51.973Z,2.09
2023-03-29T04:33:19.057Z,2.25
2023-03-29T04:35:47.176Z,2.00
2023-03-29T04:38:14.621Z,1.94
2023-03-29T04:40:42.731Z,1.93
2023-03-29T04:43:09.517Z,1.96
2023-03-29T04:45:39.018Z,1.85
2023-03-29T04:48:06.181Z,2.03
2023-03-29T04:50:33.797Z,2.17
2023-03-29T04:53:00.997Z,1.98
2023-03-29T04:55:28.166Z,2.48
2023-03-29T04:57:55.252Z,1.94
2023-03-29T05:00:24.981Z,2.04
2023-03-29T05:02:52.318Z,2.13
2023-03-29T05:05:19.568Z,2.41
2023-03-29T05:07:47.461Z,2.16
2023-03-29T05:10:14.187Z,2.01
2023-03-29T05:12:41.278Z,2.13
2023-03-29T05:15:09.785Z,2.46
2023-03-29T05:17:36.520Z,2.39
2023-03-29T05:20:03.328Z,2.57
2023-03-29T05:22:32.648Z,3.08
2023-03-29T05:24:59.672Z,3.24
2023-03-29T05:27:29.229Z,2.99
2023-03-29T05:29:56.527Z,3.16
2023-03-29T05:32:23.364Z,2.21
2023-03-29T05:34:50.420Z,4.03
2023-03-29T05:37:17.480Z,4.63
2023-03-29T05:39:44.468Z,3.32
2023-03-29T05:42:12.822Z,3.33
2023-03-29T05:44:40.109Z,3.29
2023-03-29T05:47:06.842Z,3.00
2023-03-29T05:49:33.744Z,3.59
2023-03-29T05:52:00.838Z,3.06
2023-03-29T05:54:27.897Z,4.03
2023-03-29T05:56:54.948Z,2.98
2023-03-29T05:59:24.617Z,7.00
2023-03-29T06:01:51.709Z,4.60
2023-03-29T06:04:18.516Z,2.68
2023-03-29T06:06:45.624Z,2.78
2023-03-29T06:09:12.674Z,3.55
2023-03-29T06:11:39.789Z,2.89
2023-03-29T06:14:07.032Z,2.98
2023-03-29T06:16:34.090Z,2.17
2023-03-29T06:19:03.596Z,2.39
2023-03-29T06:21:30.768Z,2.96
2023-03-29T06:24:00.349Z,2.44
2023-03-29T06:26:27.209Z,2.43
2023-03-29T06:28:54.075Z,2.32
2023-03-29T06:31:20.844Z,2.19
2023-03-29T06:33:47.963Z,2.19
2023-03-29T06:36:17.596Z,2.16
2023-03-29T06:38:44.691Z,1.88
2023-03-29T06:41:11.443Z,2.19
2023-03-29T06:43:41.607Z,2.20
2023-03-29T06:46:08.629Z,2.13
2023-03-29T06:48:36.653Z,2.16
2023-03-29T06:51:04.268Z,2.03
2023-03-29T06:53:34.501Z,1.93
2023-03-29T06:56:01.611Z,2.18
2023-03-29T06:58:28.691Z,2.55
2023-03-29T07:01:02.568Z,3.22
2023-03-29T07:03:29.758Z,2.26
2023-03-29T07:06:03.366Z,2.16
2023-03-29T07:08:30.533Z,1.95
2023-03-29T07:10:57.335Z,1.85
2023-03-29T07:13:24.016Z,1.92
2023-03-29T07:15:51.342Z,1.73
2023-03-29T07:18:18.482Z,1.64
2023-03-29T07:20:45.289Z,1.81
2023-03-29T07:23:12.322Z,1.91
2023-03-29T07:25:39.085Z,1.86
2023-03-29T07:28:06.210Z,1.83
2023-03-29T07:30:34.076Z,1.70
2023-03-29T07:33:01.911Z,1.76
2023-03-29T07:35:29.112Z,1.73
2023-03-29T07:38:14.718Z,1.80
2023-03-29T07:40:42.245Z,1.89
2023-03-29T07:43:09.006Z,1.83
2023-03-29T07:45:38.814Z,1.68
2023-03-29T07:48:06.952Z,1.64
2023-03-29T07:50:34.871Z,1.57
2023-03-29T07:53:01.921Z,1.78
2023-03-29T07:55:29.052Z,1.85
2023-03-29T07:57:56.407Z,1.83
2023-03-29T08:00:23.308Z,1.68
2023-03-29T08:02:51.022Z,1.69
2023-03-29T08:05:26.036Z,2.02
2023-03-29T08:07:56.300Z,2.12
2023-03-29T08:10:26.002Z,1.86
2023-03-29T08:12:52.856Z,1.85
2023-03-29T08:15:20.104Z,1.66
2023-03-29T08:17:47.666Z,2.17
2023-03-29T08:20:15.167Z,1.86
2023-03-29T08:22:44.716Z,1.90
2023-03-29T08:25:11.558Z,1.77
2023-03-29T08:27:38.864Z,1.65
2023-03-29T08:30:06.497Z,1.64
2023-03-29T08:32:33.836Z,1.86
2023-03-29T08:35:06.346Z,1.71
2023-03-29T08:37:33.513Z,1.87
2023-03-29T08:40:00.902Z,1.80
2023-03-29T08:43:12.533Z,1.84
2023-03-29T08:46:13.895Z,1.85
2023-03-29T08:48:50.090Z,1.95
2023-03-29T08:51:27.856Z,1.68
2023-03-29T08:54:25.970Z,1.99
2023-03-29T08:56:53.208Z,1.78
2023-03-29T08:59:39.739Z,1.82
2023-03-29T09:02:12.781Z,1.77
2023-03-29T09:04:42.734Z,1.58
2023-03-29T09:07:10.045Z,1.77
2023-03-29T09:09:36.813Z,1.72
2023-03-29T09:12:21.937Z,1.78
2023-03-29T09:14:51.492Z,1.94
2023-03-29T09:17:39.317Z,2.01
2023-03-29T09:20:57.515Z,1.69
2023-03-29T09:23:43.641Z,1.88
2023-03-29T09:26:13.595Z,1.98
2023-03-29T09:29:18.776Z,1.72
2023-03-29T09:31:46.075Z,1.77
2023-03-29T09:34:30.713Z,1.70
2023-03-29T09:37:04.322Z,1.85
2023-03-29T09:39:33.853Z,1.81
2023-03-29T09:42:03.228Z,1.90
2023-03-29T09:44:38.761Z,1.77
2023-03-29T09:47:20.520Z,2.11
2023-03-29T09:49:49.269Z,2.12
2023-03-29T09:52:16.467Z,1.95
2023-03-29T09:54:43.650Z,1.82
2023-03-29T09:57:12.060Z,1.83
2023-03-29T09:59:39.528Z,2.02
2023-03-29T10:02:13.130Z,2.01
2023-03-29T10:04:40.401Z,2.12
2023-03-29T10:07:07.175Z,1.91
2023-03-29T10:09:34.758Z,1.76
2023-03-29T10:12:02.193Z,1.87
2023-03-29T10:14:44.020Z,1.95
2023-03-29T10:17:26.054Z,1.90
2023-03-29T10:19:56.637Z,1.97
2023-03-29T10:22:32.318Z,2.07
2023-03-29T10:24:59.470Z,1.96
2023-03-29T10:27:27.542Z,1.72
2023-03-29T10:29:54.334Z,1.84
2023-03-29T10:32:34.777Z,1.88
2023-03-29T10:35:22.881Z,2.14
2023-03-29T10:37:53.483Z,2.10
2023-03-29T10:40:31.365Z,1.82
2023-03-29T10:43:01.908Z,1.95
2023-03-29T10:45:30.581Z,2.14
2023-03-29T10:47:58.464Z,1.99
2023-03-29T10:50:27.332Z,2.49
2023-03-29T10:52:54.920Z,2.15
2023-03-29T10:55:22.708Z,2.16
2023-03-29T10:58:04.472Z,2.14
2023-03-29T11:00:49.107Z,2.17
2023-03-29T11:03:17.032Z,2.31
2023-03-29T11:06:03.792Z,2.27
2023-03-29T11:08:43.549Z,2.34
2023-03-29T11:11:22.967Z,2.40
2023-03-29T11:13:58.064Z,2.40
2023-03-29T11:16:37.175Z,20.29
2023-03-29T11:19:47.501Z,3.12
2023-03-29T11:22:25.905Z,2.47
2023-03-29T11:25:29.108Z,2.71
2023-03-29T11:28:06.220Z,2.49
2023-03-29T11:31:13.082Z,2.93
2023-03-29T11:33:58.365Z,2.53
2023-03-29T11:36:46.056Z,2.33
2023-03-29T11:39:29.903Z,2.37
2023-03-29T11:42:06.443Z,2.39
2023-03-29T11:44:34.069Z,2.64
2023-03-29T11:47:15.810Z,2.89
2023-03-29T11:50:01.471Z,2.33
2023-03-29T11:52:47.175Z,2.71
2023-03-29T11:55:24.907Z,2.51
2023-03-29T11:58:06.370Z,2.58
2023-03-29T12:00:39.044Z,2.71
2023-03-29T12:03:34.758Z,2.67
2023-03-29T12:06:44.684Z,2.69
2023-03-29T12:09:39.684Z,2.61
2023-03-29T12:12:17.658Z,2.49
2023-03-29T12:15:07.062Z,2.64
2023-03-29T12:17:45.743Z,2.47
2023-03-29T12:20:22.850Z,2.75
2023-03-29T12:22:53.097Z,2.54
2023-03-29T12:25:24.138Z,2.51
2023-03-29T12:28:10.501Z,2.54
2023-03-29T12:31:07.784Z,2.70
2023-03-29T12:33:57.506Z,2.80
2023-03-29T12:36:43.768Z,2.42
2023-03-29T12:39:18.508Z,2.72
2023-03-29T12:41:45.251Z,2.44
2023-03-29T12:44:16.947Z,2.60
2023-03-29T12:47:05.146Z,2.47
2023-03-29T12:49:44.889Z,2.51
2023-03-29T12:52:29.851Z,2.66
2023-03-29T12:54:58.832Z,2.56
2023-03-29T12:57:58.714Z,2.77
2023-03-29T13:00:51.464Z,2.67
2023-03-29T13:03:29.898Z,2.74
2023-03-29T13:06:04.674Z,2.65
2023-03-29T13:08:42.950Z,3.01
2023-03-29T13:11:12.756Z,2.77
2023-03-29T13:13:40.901Z,2.68
2023-03-29T13:16:18.866Z,2.48
2023-03-29T13:18:52.283Z,2.43
2023-03-29T13:21:23.478Z,2.89
2023-03-29T13:24:17.463Z,2.55
2023-03-29T13:27:25.483Z,2.52
2023-03-29T13:30:01.611Z,2.45
2023-03-29T13:32:32.522Z,2.51
2023-03-29T13:35:05.262Z,2.28
2023-03-29T13:37:54.513Z,2.64
2023-03-29T13:40:35.675Z,2.49
2023-03-29T13:43:22.391Z,2.53
2023-03-29T13:45:59.529Z,2.75
2023-03-29T13:48:32.976Z,2.71
2023-03-29T13:51:05.451Z,3.22
2023-03-29T13:53:53.508Z,2.86
2023-03-29T13:56:34.865Z,3.16
2023-03-29T13:59:06.103Z,2.65
2023-03-29T14:01:39.979Z,2.95
2023-03-29T14:04:10.852Z,2.57
2023-03-29T14:06:44.951Z,2.60
2023-03-29T14:09:12.458Z,2.56
2023-03-29T14:11:40.667Z,2.29
2023-03-29T14:14:10.808Z,2.59
2023-03-29T14:16:40.480Z,2.60
2023-03-29T14:19:16.457Z,2.43
2023-03-29T14:21:46.984Z,2.56
2023-03-29T14:24:19.127Z,2.71
2023-03-29T14:26:46.738Z,2.73
2023-03-29T14:29:13.565Z,2.83
2023-03-29T14:31:43.880Z,2.92
2023-03-29T14:34:18.608Z,2.57
2023-03-29T14:36:47.346Z,2.74
2023-03-29T14:39:21.412Z,2.63
2023-03-29T14:41:57.203Z,2.72
2023-03-29T14:44:27.190Z,2.68
2023-03-29T14:46:58.129Z,2.87
2023-03-29T14:49:25.895Z,3.01
2023-03-29T14:52:04.374Z,2.95
2023-03-29T14:54:33.082Z,3.12
2023-03-29T14:57:08.919Z,2.94
2023-03-29T14:59:41.929Z,3.19
2023-03-29T15:02:39.023Z,3.16
2023-03-29T15:05:20.486Z,3.48
2023-03-29T15:07:48.800Z,3.16
2023-03-29T15:10:19.540Z,3.39
2023-03-29T15:12:46.274Z,3.33
2023-03-29T15:15:15.371Z,3.61
2023-03-29T15:17:51.622Z,3.29
2023-03-29T15:20:26.483Z,3.47
2023-03-29T15:23:02.901Z,3.16
2023-03-29T15:28:28.801Z,3.05
2023-03-29T15:31:10.413Z,2.96
2023-03-29T15:33:40.507Z,3.20
2023-03-29T15:36:08.595Z,3.26
2023-03-29T15:38:44.009Z,3.37
2023-03-29T15:41:20.834Z,3.36
2023-03-29T15:43:48.265Z,3.56
2023-03-29T15:46:16.722Z,4.37
2023-03-29T15:48:44.430Z,4.19
2023-03-29T15:51:12.631Z,3.64
2023-03-29T15:53:39.952Z,4.06
2023-03-29T15:56:08.997Z,3.48
2023-03-29T15:58:36.418Z,3.06
2023-03-29T16:01:21.829Z,3.40
2023-03-29T16:03:49.400Z,3.36
2023-03-29T16:06:17.622Z,3.48
2023-03-29T16:08:44.567Z,4.12
2023-03-29T16:11:12.080Z,3.58
2023-03-29T16:13:42.597Z,3.37
2023-03-29T16:16:19.342Z,3.47
2023-03-29T16:19:00.721Z,3.54
2023-03-29T16:21:45.526Z,3.62
2023-03-29T16:24:14.531Z,3.41
2023-03-29T16:26:43.087Z,4.06
2023-03-29T16:29:17.423Z,3.86
2023-03-29T16:31:45.742Z,4.27
2023-03-29T16:34:13.413Z,4.13
2023-03-29T16:36:40.447Z,3.80
2023-03-29T16:39:07.198Z,4.12
2023-03-29T16:41:37.766Z,4.06
2023-03-29T16:44:05.378Z,3.78
2023-03-29T16:46:35.753Z,3.74
2023-03-29T16:49:03.438Z,4.02
2023-03-29T16:51:37.773Z,3.88
2023-03-29T16:54:04.938Z,4.35
2023-03-29T16:56:31.790Z,3.94
2023-03-29T16:58:58.584Z,4.39
2023-03-29T17:01:26.235Z,5.45
2023-03-29T17:03:55.024Z,6.83
2023-03-29T17:06:23.630Z,6.16
2023-03-29T17:08:50.731Z,5.74
2023-03-29T17:11:18.116Z,7.29
2023-03-29T17:13:44.862Z,5.85
2023-03-29T17:16:12.688Z,4.20
2023-03-29T17:18:40.116Z,3.41
2023-03-29T17:21:08.169Z,3.50
2023-03-29T17:23:35.373Z,3.73
2023-03-29T17:26:02.871Z,4.05
2023-03-29T17:28:30.749Z,4.58
2023-03-29T17:30:57.534Z,4.98
2023-03-29T17:33:26.128Z,4.91
2023-03-29T17:35:54.445Z,4.74
2023-03-29T17:38:22.944Z,5.88
2023-03-29T17:40:53.599Z,5.18
2023-03-29T17:43:23.231Z,5.43
2023-03-29T17:45:54.126Z,5.44
2023-03-29T17:48:21.125Z,5.86
2023-03-29T17:50:48.669Z,4.96
2023-03-29T17:53:16.142Z,4.90
2023-03-29T17:55:45.452Z,5.38
2023-03-29T17:58:15.127Z,7.84
2023-03-29T18:00:42.724Z,7.80
2023-03-29T18:03:13.475Z,5.56
2023-03-29T18:05:40.518Z,4.73
2023-03-29T18:08:11.940Z,4.38
2023-03-29T18:10:39.555Z,4.73
2023-03-29T18:13:06.456Z,4.63
2023-03-29T18:15:35.445Z,5.50
2023-03-29T18:18:02.384Z,5.47
2023-03-29T18:20:32.538Z,5.84
2023-03-29T18:23:02.871Z,5.29
2023-03-29T18:25:30.466Z,5.93
2023-03-29T18:27:57.275Z,6.64
2023-03-29T18:30:23.961Z,6.31
2023-03-29T18:32:51.110Z,6.72
2023-03-29T18:35:18.101Z,6.73
2023-03-29T18:37:48.152Z,5.90
2023-03-29T18:40:22.095Z,5.60
2023-03-29T18:42:49.537Z,4.72
2023-03-29T18:45:16.322Z,5.37
2023-03-29T18:47:43.078Z,5.89
2023-03-29T18:50:12.077Z,6.10
2023-03-29T18:52:42.466Z,5.67
2023-03-29T18:55:16.565Z,5.30
2023-03-29T18:57:43.928Z,5.91
2023-03-29T19:00:13.519Z,5.88
2023-03-29T19:02:43.263Z,8.50
2023-03-29T19:05:13.757Z,17.68
2023-03-29T19:07:40.731Z,10.27
2023-03-29T19:10:07.943Z,7.79
2023-03-29T19:12:34.699Z,7.11
2023-03-29T19:15:01.504Z,5.63
2023-03-29T19:17:29.670Z,6.99
2023-03-29T19:20:01.057Z,6.59
2023-03-29T19:22:28.604Z,5.24
2023-03-29T19:24:55.731Z,4.96
2023-03-29T19:27:22.494Z,5.29
2023-03-29T19:29:49.740Z,6.09
2023-03-29T19:32:19.305Z,5.81
2023-03-29T19:34:53.905Z,6.38
2023-03-29T19:37:22.642Z,6.27
2023-03-29T19:39:49.414Z,5.98
2023-03-29T19:42:16.520Z,6.20
2023-03-29T19:44:44.827Z,6.17
2023-03-29T19:47:12.817Z,6.41
2023-03-29T19:49:40.361Z,5.33
2023-03-29T19:52:07.120Z,5.03
2023-03-29T19:54:35.020Z,5.87
2023-03-29T19:57:01.875Z,6.09
2023-03-29T19:59:29.374Z,5.93
2023-03-29T20:01:56.851Z,6.28
2023-03-29T20:04:23.729Z,5.35
2023-03-29T20:06:51.296Z,6.19
2023-03-29T20:09:18.258Z,6.24
2023-03-29T20:11:45.247Z,5.46
2023-03-29T20:14:14.781Z,5.84
2023-03-29T20:16:41.990Z,5.98
2023-03-29T20:19:09.197Z,6.33
2023-03-29T20:21:35.910Z,6.53
2023-03-29T20:24:02.907Z,7.15
2023-03-29T20:26:29.922Z,5.95
2023-03-29T20:28:56.948Z,5.98
2023-03-29T20:31:29.945Z,6.53
2023-03-29T20:33:57.820Z,6.18
2023-03-29T20:36:25.518Z,7.03
2023-03-29T20:38:52.494Z,6.37
2023-03-29T20:41:19.675Z,5.68
2023-03-29T20:43:48.707Z,6.05
2023-03-29T20:46:16.456Z,6.14
2023-03-29T20:48:43.342Z,6.17
2023-03-29T20:51:10.879Z,6.17
2023-03-29T20:53:38.205Z,6.27
2023-03-29T20:56:05.365Z,5.91
2023-03-29T20:58:32.495Z,5.91
2023-03-29T21:00:59.282Z,5.61
2023-03-29T21:03:26.243Z,5.68
2023-03-29T21:05:57.786Z,5.80
2023-03-29T21:08:32.862Z,6.63
2023-03-29T21:10:59.903Z,6.38
2023-03-29T21:13:29.616Z,6.52
2023-03-29T21:15:56.381Z,6.18
2023-03-29T21:18:23.892Z,6.07
2023-03-29T21:20:50.632Z,5.99
2023-03-29T21:23:20.270Z,6.18
2023-03-29T21:25:47.204Z,6.36
2023-03-29T21:28:14.317Z,6.78
2023-03-29T21:30:41.368Z,7.17
2023-03-29T21:33:10.984Z,7.33
2023-03-29T21:35:38.157Z,6.83
2023-03-29T21:38:05.341Z,6.60
2023-03-29T21:40:31.989Z,6.94
2023-03-29T21:42:59.026Z,5.90
2023-03-29T21:45:25.792Z,6.49
2023-03-29T21:47:53.555Z,6.25
2023-03-29T21:50:21.615Z,6.26
2023-03-29T21:52:48.341Z,5.87
2023-03-29T21:55:15.138Z,5.63
2023-03-29T21:57:42.317Z,6.60
2023-03-29T22:00:09.901Z,6.97
2023-03-29T22:02:37.449Z,6.24
2023-03-29T22:05:05.016Z,5.48
2023-03-29T22:07:31.850Z,5.59
2023-03-29T22:10:00.697Z,5.58
2023-03-29T22:12:27.873Z,6.03
2023-03-29T22:14:54.605Z,6.63
2023-03-29T22:17:21.627Z,5.86
2023-03-29T22:19:51.189Z,5.37
2023-03-29T22:22:18.664Z,6.32
2023-03-29T22:24:48.299Z,6.36
2023-03-29T22:27:15.400Z,6.09
2023-03-29T22:29:42.130Z,6.21
2023-03-29T22:32:09.254Z,6.61
2023-03-29T22:34:37.177Z,6.54
2023-03-29T22:37:04.172Z,6.26
2023-03-29T22:39:31.297Z,6.21
2023-03-29T22:41:58.449Z,6.42
2023-03-29T22:44:25.160Z,6.02
2023-03-29T22:46:52.018Z,7.16
2023-03-29T22:49:19.004Z,6.57
2023-03-29T22:51:48.455Z,6.19
2023-03-29T22:54:15.489Z,6.98
2023-03-29T22:56:42.613Z,6.61
2023-03-29T22:59:09.809Z,6.74
2023-03-29T23:01:39.670Z,6.65
2023-03-29T23:04:07.601Z,7.32
2023-03-29T23:06:34.715Z,6.73
2023-03-29T23:09:04.449Z,6.61
2023-03-29T23:11:31.529Z,7.57
2023-03-29T23:13:58.632Z,6.72
2023-03-29T23:16:26.554Z,6.56
2023-03-29T23:18:55.665Z,6.49
2023-03-29T23:21:23.909Z,7.31
2023-03-29T23:23:51.825Z,6.99
2023-03-29T23:26:20.020Z,7.18
2023-03-29T23:28:46.763Z,6.63
2023-03-29T23:31:14.390Z,7.55
2023-03-29T23:33:41.744Z,7.14
2023-03-29T23:36:10.575Z,6.24
2023-03-29T23:38:38.021Z,6.67
2023-03-29T23:41:07.283Z,7.13
2023-03-29T23:43:38.926Z,8.43
2023-03-29T23:46:06.996Z,5.84
2023-03-29T23:48:33.774Z,5.73
2023-03-29T23:51:02.620Z,5.85
2023-03-29T23:53:29.843Z,6.33
2023-03-29T23:55:57.612Z,7.60
2023-03-29T23:58:24.513Z,6.25
